sensor_id;sensor_type;location;lat;lon;timestamp;pressure;altitude;pressure_sealevel;temperature;humidity
48555;BME280;34336;48.270;16.716;2022-10-17T00:00:06;76782.97;;;18.16;78.08
48555;BME280;34336;48.270;16.716;2022-10-17T00:02:32;76794.53;;;18.16;77.98
48555;BME280;34336;48.270;16.716;2022-10-17T00:04:59;76790.66;;;18.16;78.42
48555;BME280;34336;48.270;16.716;2022-10-17T00:07:26;76796.44;;;18.16;78.66
48555;BME280;34336;48.270;16.716;2022-10-17T00:09:53;76798.38;;;18.16;78.43
48555;BME280;34336;48.270;16.716;2022-10-17T00:12:19;76802.22;;;18.16;78.59
48555;BME280;34336;48.270;16.716;2022-10-17T00:14:46;76811.88;;;18.16;78.61
48555;BME280;34336;48.270;16.716;2022-10-17T00:17:13;76802.22;;;18.16;78.12
48555;BME280;34336;48.270;16.716;2022-10-17T00:19:42;76802.22;;;18.16;78.33
48555;BME280;34336;48.270;16.716;2022-10-17T00:22:08;76802.22;;;18.16;78.29
48555;BME280;34336;48.270;16.716;2022-10-17T00:24:35;76802.22;;;18.16;78.31
48555;BME280;34336;48.270;16.716;2022-10-17T00:27:02;76813.78;;;18.16;78.29
48555;BME280;34336;48.270;16.716;2022-10-17T00:29:29;76811.88;;;18.16;78.27
48555;BME280;34336;48.270;16.716;2022-10-17T00:31:56;76817.66;;;18.16;78.54
48555;BME280;34336;48.270;16.716;2022-10-17T00:34:23;76825.34;;;18.16;78.60
48555;BME280;34336;48.270;16.716;2022-10-17T00:36:51;76831.13;;;18.16;78.80
48555;BME280;34336;48.270;16.716;2022-10-17T00:39:17;76829.22;;;18.16;78.78
48555;BME280;34336;48.270;16.716;2022-10-17T00:41:44;76829.22;;;18.16;79.08
48555;BME280;34336;48.270;16.716;2022-10-17T00:47:05;76833.06;;;18.16;78.97
48555;BME280;34336;48.270;16.716;2022-10-17T00:49:35;76835.00;;;18.16;79.03
48555;BME280;34336;48.270;16.716;2022-10-17T00:52:09;76835.00;;;18.16;79.18
48555;BME280;34336;48.270;16.716;2022-10-17T00:54:40;76833.06;;;18.16;79.22
48555;BME280;34336;48.270;16.716;2022-10-17T00:57:09;76833.06;;;18.16;78.88
48555;BME280;34336;48.270;16.716;2022-10-17T00:59:38;76844.63;;;18.16;79.17
48555;BME280;34336;48.270;16.716;2022-10-17T01:02:10;76844.63;;;18.16;79.01
48555;BME280;34336;48.270;16.716;2022-10-17T01:04:39;76856.19;;;18.16;78.85
48555;BME280;34336;48.270;16.716;2022-10-17T01:07:07;76863.91;;;18.16;79.12
48555;BME280;34336;48.270;16.716;2022-10-17T01:09:34;76867.75;;;18.16;79.33
48555;BME280;34336;48.270;16.716;2022-10-17T01:12:09;76867.75;;;18.16;79.78
48555;BME280;34336;48.270;16.716;2022-10-17T01:14:49;76871.63;;;18.16;80.21
48555;BME280;34336;48.270;16.716;2022-10-17T01:17:34;76883.19;;;18.16;80.29
48555;BME280;34336;48.270;16.716;2022-10-17T01:31:56;76925.56;;;18.16;80.48
48555;BME280;34336;48.270;16.716;2022-10-17T01:34:43;76921.72;;;18.16;80.58
48555;BME280;34336;48.270;16.716;2022-10-17T01:37:15;76927.50;;;18.16;80.25
48555;BME280;34336;48.270;16.716;2022-10-17T01:39:53;76925.56;;;18.16;80.09
48555;BME280;34336;48.270;16.716;2022-10-17T01:45:14;76941.00;;;18.16;80.12
48555;BME280;34336;48.270;16.716;2022-10-17T01:47:45;76952.56;;;18.16;80.11
48555;BME280;34336;48.270;16.716;2022-10-17T01:50:20;76952.56;;;18.16;80.56
48555;BME280;34336;48.270;16.716;2022-10-17T01:52:59;76952.56;;;18.16;80.47
48555;BME280;34336;48.270;16.716;2022-10-17T01:55:34;76946.78;;;18.16;80.60
48555;BME280;34336;48.270;16.716;2022-10-17T01:58:08;76941.00;;;18.16;80.75
48555;BME280;34336;48.270;16.716;2022-10-17T02:00:36;76927.50;;;18.16;80.26
48555;BME280;34336;48.270;16.716;2022-10-17T02:03:07;76923.66;;;18.16;80.01
48555;BME280;34336;48.270;16.716;2022-10-17T02:05:39;76925.56;;;18.16;80.30
48555;BME280;34336;48.270;16.716;2022-10-17T02:08:08;76935.22;;;18.16;80.53
48555;BME280;34336;48.270;16.716;2022-10-17T02:16:13;76908.22;;;18.16;81.37
48555;BME280;34336;48.270;16.716;2022-10-17T02:19:01;76906.31;;;18.16;81.54
48555;BME280;34336;48.270;16.716;2022-10-17T02:24:16;76892.81;;;18.16;80.96
48555;BME280;34336;48.270;16.716;2022-10-17T02:27:16;76894.75;;;18.16;80.43
48555;BME280;34336;48.270;16.716;2022-10-17T02:29:56;76898.59;;;18.16;80.75
48555;BME280;34336;48.270;16.716;2022-10-17T02:32:34;76902.44;;;18.16;80.16
48555;BME280;34336;48.270;16.716;2022-10-17T02:35:06;76902.44;;;18.16;80.18
48555;BME280;34336;48.270;16.716;2022-10-17T02:37:36;76898.59;;;18.16;80.11
48555;BME280;34336;48.270;16.716;2022-10-17T02:40:04;76894.75;;;18.16;80.19
48555;BME280;34336;48.270;16.716;2022-10-17T02:42:32;76892.81;;;18.16;79.94
48555;BME280;34336;48.270;16.716;2022-10-17T02:45:03;76894.75;;;18.16;79.83
48555;BME280;34336;48.270;16.716;2022-10-17T02:47:38;76894.75;;;18.16;79.79
48555;BME280;34336;48.270;16.716;2022-10-17T02:50:09;76890.88;;;18.16;79.89
48555;BME280;34336;48.270;16.716;2022-10-17T02:53:12;76879.31;;;18.16;79.41
48555;BME280;34336;48.270;16.716;2022-10-17T02:55:49;76869.69;;;18.16;78.91
48555;BME280;34336;48.270;16.716;2022-10-17T02:58:19;76861.97;;;18.16;78.24
48555;BME280;34336;48.270;16.716;2022-10-17T03:00:47;76858.13;;;18.16;78.11
48555;BME280;34336;48.270;16.716;2022-10-17T03:03:23;76852.34;;;18.16;77.71
48555;BME280;34336;48.270;16.716;2022-10-17T03:05:51;76850.41;;;18.16;77.34
48555;BME280;34336;48.270;16.716;2022-10-17T03:08:21;76848.47;;;18.16;77.42
48555;BME280;34336;48.270;16.716;2022-10-17T03:10:49;76829.22;;;18.16;76.78
48555;BME280;34336;48.270;16.716;2022-10-17T03:13:17;76829.22;;;18.16;76.03
48555;BME280;34336;48.270;16.716;2022-10-17T03:15:44;76825.34;;;18.16;75.39
48555;BME280;34336;48.270;16.716;2022-10-17T03:18:12;76815.72;;;18.16;75.04
48555;BME280;34336;48.270;16.716;2022-10-17T03:20:38;76815.72;;;18.16;74.91
48555;BME280;34336;48.270;16.716;2022-10-17T03:23:05;76815.72;;;18.16;74.96
48555;BME280;34336;48.270;16.716;2022-10-17T03:25:32;76825.34;;;18.16;74.81
48555;BME280;34336;48.270;16.716;2022-10-17T03:27:59;76829.22;;;18.16;75.07
48555;BME280;34336;48.270;16.716;2022-10-17T03:30:27;76833.06;;;18.16;75.15
48555;BME280;34336;48.270;16.716;2022-10-17T03:32:56;76836.94;;;18.16;75.07
48555;BME280;34336;48.270;16.716;2022-10-17T03:35:24;76840.78;;;18.16;75.10
48555;BME280;34336;48.270;16.716;2022-10-17T03:37:51;76856.19;;;18.16;75.51
48555;BME280;34336;48.270;16.716;2022-10-17T03:40:21;76856.19;;;18.16;75.39
48555;BME280;34336;48.270;16.716;2022-10-17T03:42:48;76867.75;;;18.16;75.35
48555;BME280;34336;48.270;16.716;2022-10-17T03:45:15;76881.25;;;18.16;75.28
48555;BME280;34336;48.270;16.716;2022-10-17T03:47:43;76908.22;;;18.16;75.41
48555;BME280;34336;48.270;16.716;2022-10-17T03:50:09;76925.56;;;18.16;75.95
48555;BME280;34336;48.270;16.716;2022-10-17T03:52:37;76933.28;;;18.16;76.26
48555;BME280;34336;48.270;16.716;2022-10-17T03:55:04;76950.63;;;18.16;76.59
48555;BME280;34336;48.270;16.716;2022-10-17T03:57:33;76966.03;;;18.16;76.78
48555;BME280;34336;48.270;16.716;2022-10-17T04:00:00;76975.69;;;18.16;77.19
48555;BME280;34336;48.270;16.716;2022-10-17T04:02:28;76991.09;;;18.16;77.56
48555;BME280;34336;48.270;16.716;2022-10-17T04:04:56;77006.53;;;18.16;77.82
48555;BME280;34336;48.270;16.716;2022-10-17T04:07:23;76998.81;;;18.16;78.04
48555;BME280;34336;48.270;16.716;2022-10-17T04:09:50;77014.22;;;18.16;78.19
48555;BME280;34336;48.270;16.716;2022-10-17T04:12:18;77025.78;;;18.16;78.27
48555;BME280;34336;48.270;16.716;2022-10-17T04:14:45;77031.56;;;18.16;78.43
48555;BME280;34336;48.270;16.716;2022-10-17T04:17:13;77041.22;;;18.16;78.76
48555;BME280;34336;48.270;16.716;2022-10-17T04:19:40;77052.78;;;18.16;78.73
48555;BME280;34336;48.270;16.716;2022-10-17T04:22:07;77048.91;;;18.16;79.06
48555;BME280;34336;48.270;16.716;2022-10-17T04:24:37;77052.78;;;18.16;78.63
48555;BME280;34336;48.270;16.716;2022-10-17T04:27:24;77068.19;;;18.16;78.54
48555;BME280;34336;48.270;16.716;2022-10-17T04:29:51;77075.91;;;18.16;78.64
48555;BME280;34336;48.270;16.716;2022-10-17T04:32:22;77075.91;;;18.16;79.46
48555;BME280;34336;48.270;16.716;2022-10-17T04:34:55;77072.03;;;18.16;79.46
48555;BME280;34336;48.270;16.716;2022-10-17T04:37:22;77075.91;;;18.16;79.39
48555;BME280;34336;48.270;16.716;2022-10-17T04:39:52;77060.47;;;18.16;79.30
48555;BME280;34336;48.270;16.716;2022-10-17T04:42:19;77060.47;;;18.16;79.46
48555;BME280;34336;48.270;16.716;2022-10-17T04:44:46;77052.78;;;18.16;79.14
48555;BME280;34336;48.270;16.716;2022-10-17T04:47:15;77052.78;;;18.16;78.72
48555;BME280;34336;48.270;16.716;2022-10-17T04:49:42;77052.78;;;18.16;78.73
48555;BME280;34336;48.270;16.716;2022-10-17T04:52:10;77054.69;;;18.16;78.25
48555;BME280;34336;48.270;16.716;2022-10-17T04:54:42;77052.78;;;18.16;78.48
48555;BME280;34336;48.270;16.716;2022-10-17T04:57:11;77045.06;;;18.16;77.98
48555;BME280;34336;48.270;16.716;2022-10-17T04:59:39;77037.34;;;18.16;77.62
48555;BME280;34336;48.270;16.716;2022-10-17T05:02:25;77041.22;;;18.16;77.78
48555;BME280;34336;48.270;16.716;2022-10-17T05:04:52;77045.06;;;18.16;77.21
48555;BME280;34336;48.270;16.716;2022-10-17T05:07:19;77041.22;;;18.16;77.25
48555;BME280;34336;48.270;16.716;2022-10-17T05:09:52;77045.06;;;18.16;76.86
48555;BME280;34336;48.270;16.716;2022-10-17T05:12:20;77043.13;;;18.16;76.37
48555;BME280;34336;48.270;16.716;2022-10-17T05:14:47;77045.06;;;18.16;76.27
48555;BME280;34336;48.270;16.716;2022-10-17T05:17:14;77050.84;;;18.16;76.31
48555;BME280;34336;48.270;16.716;2022-10-17T05:19:40;77045.06;;;18.16;76.14
48555;BME280;34336;48.270;16.716;2022-10-17T05:22:08;77037.34;;;18.16;75.65
48555;BME280;34336;48.270;16.716;2022-10-17T05:24:34;77037.34;;;18.16;75.37
48555;BME280;34336;48.270;16.716;2022-10-17T05:27:02;77037.34;;;18.16;75.29
48555;BME280;34336;48.270;16.716;2022-10-17T05:29:29;77033.50;;;18.16;75.26
48555;BME280;34336;48.270;16.716;2022-10-17T05:32:04;77031.56;;;18.16;75.29
48555;BME280;34336;48.270;16.716;2022-10-17T05:34:33;77008.44;;;18.16;74.51
48555;BME280;34336;48.270;16.716;2022-10-17T05:37:00;76994.97;;;18.16;73.90
48555;BME280;34336;48.270;16.716;2022-10-17T05:39:27;76971.81;;;18.16;73.01
48555;BME280;34336;48.270;16.716;2022-10-17T05:41:55;76952.56;;;18.16;71.96
48555;BME280;34336;48.270;16.716;2022-10-17T05:44:22;76927.50;;;18.16;71.36
48555;BME280;34336;48.270;16.716;2022-10-17T05:46:53;76890.88;;;18.16;70.08
48555;BME280;34336;48.270;16.716;2022-10-17T05:49:20;76867.75;;;18.16;69.06
48555;BME280;34336;48.270;16.716;2022-10-17T05:52:06;76863.91;;;18.16;68.47
48555;BME280;34336;48.270;16.716;2022-10-17T05:54:49;76835.00;;;18.16;67.55
48555;BME280;34336;48.270;16.716;2022-10-17T05:57:15;76819.56;;;18.16;66.91
48555;BME280;34336;48.270;16.716;2022-10-17T05:59:42;76798.38;;;18.16;66.07
48555;BME280;34336;48.270;16.716;2022-10-17T06:02:12;76786.81;;;18.16;65.82
48555;BME280;34336;48.270;16.716;2022-10-17T06:04:39;76775.25;;;18.16;65.08
48555;BME280;34336;48.270;16.716;2022-10-17T06:07:12;76767.53;;;18.16;65.04
48555;BME280;34336;48.270;16.716;2022-10-17T06:09:41;76752.13;;;18.16;64.08
48555;BME280;34336;48.270;16.716;2022-10-17T06:12:09;76732.84;;;18.16;63.82
48555;BME280;34336;48.270;16.716;2022-10-17T06:14:36;76719.38;;;18.16;63.33
48555;BME280;34336;48.270;16.716;2022-10-17T06:17:06;76688.53;;;18.16;62.98
48555;BME280;34336;48.270;16.716;2022-10-17T06:19:39;76696.25;;;18.16;62.63
48555;BME280;34336;48.270;16.716;2022-10-17T06:22:07;76663.47;;;18.16;62.06
48555;BME280;34336;48.270;16.716;2022-10-17T06:24:35;76640.34;;;18.16;61.95
48555;BME280;34336;48.270;16.716;2022-10-17T06:27:03;76640.34;;;18.16;61.45
48555;BME280;34336;48.270;16.716;2022-10-17T06:29:38;76609.53;;;18.16;60.52
48555;BME280;34336;48.270;16.716;2022-10-17T06:32:05;76603.75;;;18.16;61.06
48555;BME280;34336;48.270;16.716;2022-10-17T06:34:38;76557.50;;;18.16;59.65
48555;BME280;34336;48.270;16.716;2022-10-17T06:37:05;76555.56;;;18.16;58.28
48555;BME280;34336;48.270;16.716;2022-10-17T06:39:34;76555.56;;;18.16;59.23
48555;BME280;34336;48.270;16.716;2022-10-17T06:42:13;76509.31;;;18.16;58.39
48555;BME280;34336;48.270;16.716;2022-10-17T06:45:02;76526.66;;;18.16;58.41
48555;BME280;34336;48.270;16.716;2022-10-17T06:47:37;76511.25;;;18.16;57.90
48555;BME280;34336;48.270;16.716;2022-10-17T06:50:18;76466.94;;;18.16;57.72
48555;BME280;34336;48.270;16.716;2022-10-17T06:53:03;76466.94;;;18.16;57.31
48555;BME280;34336;48.270;16.716;2022-10-17T06:55:44;76439.94;;;18.16;57.12
48555;BME280;34336;48.270;16.716;2022-10-17T06:58:20;76403.34;;;18.16;56.81
48555;BME280;34336;48.270;16.716;2022-10-17T07:01:11;76438.03;;;18.16;56.72
48555;BME280;34336;48.270;16.716;2022-10-17T07:03:39;76459.22;;;18.16;57.88
48555;BME280;34336;48.270;16.716;2022-10-17T07:06:07;76382.13;;;18.16;55.97
48555;BME280;34336;48.270;16.716;2022-10-17T07:08:40;76328.19;;;18.16;55.36
48555;BME280;34336;48.270;16.716;2022-10-17T07:11:12;76305.06;;;18.16;53.81
48555;BME280;34336;48.270;16.716;2022-10-17T07:13:41;76297.34;;;18.16;54.29
48555;BME280;34336;48.270;16.716;2022-10-17T07:16:09;76310.84;;;18.16;54.18
48555;BME280;34336;48.270;16.716;2022-10-17T07:18:38;76295.44;;;18.16;54.23
48555;BME280;34336;48.270;16.716;2022-10-17T07:21:06;76330.13;;;18.16;55.85
48555;BME280;34336;48.270;16.716;2022-10-17T07:23:35;76270.38;;;18.16;54.26
48555;BME280;34336;48.270;16.716;2022-10-17T07:26:05;76305.06;;;18.16;55.37
48555;BME280;34336;48.270;16.716;2022-10-17T07:28:38;76287.72;;;18.16;54.80
48555;BME280;34336;48.270;16.716;2022-10-17T07:31:19;76345.53;;;18.16;56.35
48555;BME280;34336;48.270;16.716;2022-10-17T07:33:48;76328.19;;;18.16;56.52
48555;BME280;34336;48.270;16.716;2022-10-17T07:36:15;76285.78;;;18.16;56.21
48555;BME280;34336;48.270;16.716;2022-10-17T07:38:43;76293.50;;;18.16;54.85
48555;BME280;34336;48.270;16.716;2022-10-17T07:41:10;76239.56;;;18.16;54.06
48555;BME280;34336;48.270;16.716;2022-10-17T07:43:49;76251.13;;;18.16;54.12
48555;BME280;34336;48.270;16.716;2022-10-17T07:46:20;76303.13;;;18.16;54.16
48555;BME280;34336;48.270;16.716;2022-10-17T07:48:46;76293.50;;;18.16;54.66
48555;BME280;34336;48.270;16.716;2022-10-17T07:51:14;76297.34;;;18.16;54.60
48555;BME280;34336;48.270;16.716;2022-10-17T07:53:42;76357.09;;;18.16;56.63
48555;BME280;34336;48.270;16.716;2022-10-17T07:56:14;76320.47;;;18.16;55.55
48555;BME280;34336;48.270;16.716;2022-10-17T07:58:40;76337.81;;;18.16;54.76
48555;BME280;34336;48.270;16.716;2022-10-17T08:01:08;76339.75;;;18.16;55.83
48555;BME280;34336;48.270;16.716;2022-10-17T08:03:43;76307.00;;;18.16;55.15
48555;BME280;34336;48.270;16.716;2022-10-17T08:06:10;76326.25;;;18.16;54.76
48555;BME280;34336;48.270;16.716;2022-10-17T08:08:37;76274.22;;;18.16;54.21
48555;BME280;34336;48.270;16.716;2022-10-17T08:11:07;76285.78;;;18.16;54.87
48555;BME280;34336;48.270;16.716;2022-10-17T08:13:36;76289.66;;;18.16;54.38
48555;BME280;34336;48.270;16.716;2022-10-17T08:16:07;76224.13;;;18.16;53.95
48555;BME280;34336;48.270;16.716;2022-10-17T08:18:35;76220.28;;;18.16;54.39
48555;BME280;34336;48.270;16.716;2022-10-17T08:21:05;76256.91;;;18.16;53.46
48555;BME280;34336;48.270;16.716;2022-10-17T08:23:34;76281.94;;;18.16;53.21
48555;BME280;34336;48.270;16.716;2022-10-17T08:26:06;76289.66;;;18.16;55.19
48555;BME280;34336;48.270;16.716;2022-10-17T08:28:38;76280.00;;;18.16;53.39
48555;BME280;34336;48.270;16.716;2022-10-17T08:31:08;76289.66;;;18.16;53.76
48555;BME280;34336;48.270;16.716;2022-10-17T08:33:36;76243.41;;;18.16;53.49
48555;BME280;34336;48.270;16.716;2022-10-17T08:36:04;76235.69;;;18.16;53.03
48555;BME280;34336;48.270;16.716;2022-10-17T08:38:32;76251.13;;;18.16;52.49
48555;BME280;34336;48.270;16.716;2022-10-17T08:41:33;76231.84;;;18.16;53.34
48555;BME280;34336;48.270;16.716;2022-10-17T08:46:54;76185.59;;;18.16;52.68
48555;BME280;34336;48.270;16.716;2022-10-17T08:49:38;76154.78;;;18.16;51.89
48555;BME280;34336;48.270;16.716;2022-10-17T08:52:20;76122.00;;;18.16;51.75
48555;BME280;34336;48.270;16.716;2022-10-17T08:54:51;76116.25;;;18.16;51.69
48555;BME280;34336;48.270;16.716;2022-10-17T08:57:18;76147.06;;;18.16;51.99
48555;BME280;34336;48.270;16.716;2022-10-17T08:59:49;76156.69;;;18.16;52.69
48555;BME280;34336;48.270;16.716;2022-10-17T09:05:20;76154.78;;;18.16;52.85
48555;BME280;34336;48.270;16.716;2022-10-17T09:16:38;76141.28;;;18.16;53.06
48555;BME280;34336;48.270;16.716;2022-10-17T09:19:24;76154.78;;;18.16;52.58
48555;BME280;34336;48.270;16.716;2022-10-17T09:21:57;76154.78;;;18.16;53.17
48555;BME280;34336;48.270;16.716;2022-10-17T09:29:50;76123.94;;;18.16;53.32
48555;BME280;34336;48.270;16.716;2022-10-17T09:32:23;76108.53;;;18.16;52.12
48555;BME280;34336;48.270;16.716;2022-10-17T09:34:52;76112.38;;;18.16;51.93
48555;BME280;34336;48.270;16.716;2022-10-17T09:37:25;76091.19;;;18.16;52.14
48555;BME280;34336;48.270;16.716;2022-10-17T09:39:55;76085.41;;;18.16;51.49
48555;BME280;34336;48.270;16.716;2022-10-17T09:42:24;76102.75;;;18.16;51.67
48555;BME280;34336;48.270;16.716;2022-10-17T09:45:15;76093.13;;;18.16;51.93
48555;BME280;34336;48.270;16.716;2022-10-17T09:48:09;76083.47;;;18.16;50.80
48555;BME280;34336;48.270;16.716;2022-10-17T09:50:39;76068.06;;;18.16;51.02
48555;BME280;34336;48.270;16.716;2022-10-17T09:53:12;76089.25;;;18.16;51.16
48555;BME280;34336;48.270;16.716;2022-10-17T09:55:52;76054.59;;;18.16;51.74
48555;BME280;34336;48.270;16.716;2022-10-17T09:58:22;76031.47;;;18.16;51.65
48555;BME280;34336;48.270;16.716;2022-10-17T10:00:48;75996.78;;;18.16;50.22
48555;BME280;34336;48.270;16.716;2022-10-17T10:03:22;76004.47;;;18.16;50.12
48555;BME280;34336;48.270;16.716;2022-10-17T10:08:53;75944.75;;;18.16;50.30
48555;BME280;34336;48.270;16.716;2022-10-17T10:14:36;75946.69;;;18.16;49.69
48555;BME280;34336;48.270;16.716;2022-10-17T10:20:00;75964.03;;;18.16;49.33
48555;BME280;34336;48.270;16.716;2022-10-17T10:22:27;75940.91;;;18.16;48.75
48555;BME280;34336;48.270;16.716;2022-10-17T10:27:39;75931.28;;;18.16;48.91
48555;BME280;34336;48.270;16.716;2022-10-17T10:30:16;75948.63;;;18.16;49.07
48555;BME280;34336;48.270;16.716;2022-10-17T10:32:46;75935.13;;;18.16;48.97
48555;BME280;34336;48.270;16.716;2022-10-17T10:35:23;75896.59;;;18.16;48.88
48555;BME280;34336;48.270;16.716;2022-10-17T10:37:57;75919.72;;;18.16;48.44
48555;BME280;34336;48.270;16.716;2022-10-17T10:40:27;75917.78;;;18.16;48.40
48555;BME280;34336;48.270;16.716;2022-10-17T10:42:57;75904.28;;;18.16;48.29
48555;BME280;34336;48.270;16.716;2022-10-17T10:59:38;75831.09;;;18.16;47.92
48555;BME280;34336;48.270;16.716;2022-10-17T11:02:00;75879.25;;;18.16;47.88
48555;BME280;34336;48.270;16.716;2022-10-17T11:07:07;75838.78;;;18.16;48.45
48555;BME280;34336;48.270;16.716;2022-10-17T11:15:23;75811.81;;;18.16;48.05
48555;BME280;34336;48.270;16.716;2022-10-17T11:17:58;75792.56;;;18.16;47.83
48555;BME280;34336;48.270;16.716;2022-10-17T11:20:35;75782.91;;;18.16;46.76
48555;BME280;34336;48.270;16.716;2022-10-17T11:23:16;75769.44;;;18.16;47.56
48555;BME280;34336;48.270;16.716;2022-10-17T11:25:51;75757.88;;;18.16;47.04
48555;BME280;34336;48.270;16.716;2022-10-17T11:28:22;75742.47;;;18.16;46.10
48555;BME280;34336;48.270;16.716;2022-10-17T11:31:07;75734.75;;;18.16;46.31
48555;BME280;34336;48.270;16.716;2022-10-17T11:36:30;75730.91;;;18.16;45.72
48555;BME280;34336;48.270;16.716;2022-10-17T11:44:51;75725.13;;;18.16;45.32
48555;BME280;34336;48.270;16.716;2022-10-17T11:49:44;75703.94;;;18.16;44.78
48555;BME280;34336;48.270;16.716;2022-10-17T11:55:26;75680.81;;;18.16;44.96
48555;BME280;34336;48.270;16.716;2022-10-17T12:06:38;75650.00;;;18.16;44.22
48555;BME280;34336;48.270;16.716;2022-10-17T12:17:21;75650.00;;;18.16;43.30
48555;BME280;34336;48.270;16.716;2022-10-17T12:19:48;75634.56;;;18.16;44.07
48555;BME280;34336;48.270;16.716;2022-10-17T12:22:23;75646.13;;;18.16;43.58
48555;BME280;34336;48.270;16.716;2022-10-17T12:24:57;75644.22;;;18.16;43.41
48555;BME280;34336;48.270;16.716;2022-10-17T12:30:24;75638.44;;;18.16;44.01
48555;BME280;34336;48.270;16.716;2022-10-17T12:35:36;75657.69;;;18.16;43.13
48555;BME280;34336;48.270;16.716;2022-10-17T12:45:50;75650.00;;;18.16;43.39
48555;BME280;34336;48.270;16.716;2022-10-17T12:51:06;75650.00;;;18.16;43.56
48555;BME280;34336;48.270;16.716;2022-10-17T12:56:41;75642.28;;;18.16;42.97
48555;BME280;34336;48.270;16.716;2022-10-17T13:01:51;75630.72;;;18.16;42.63
48555;BME280;34336;48.270;16.716;2022-10-17T13:04:19;75634.56;;;18.16;41.92
48555;BME280;34336;48.270;16.716;2022-10-17T13:06:50;75642.28;;;18.16;41.74
48555;BME280;34336;48.270;16.716;2022-10-17T13:11:53;75636.50;;;18.16;42.13
48555;BME280;34336;48.270;16.716;2022-10-17T13:14:21;75640.34;;;18.16;41.40
48555;BME280;34336;48.270;16.716;2022-10-17T13:17:24;75626.88;;;18.16;41.71
48555;BME280;34336;48.270;16.716;2022-10-17T13:19:53;75634.56;;;18.16;41.46
48555;BME280;34336;48.270;16.716;2022-10-17T13:22:24;75650.00;;;18.16;41.61
48555;BME280;34336;48.270;16.716;2022-10-17T13:25:04;75640.34;;;18.16;41.42
48555;BME280;34336;48.270;16.716;2022-10-17T13:27:34;75636.50;;;18.16;41.16
48555;BME280;34336;48.270;16.716;2022-10-17T13:30:27;75640.34;;;18.16;40.90
48555;BME280;34336;48.270;16.716;2022-10-17T13:32:59;75642.28;;;18.16;41.21
48555;BME280;34336;48.270;16.716;2022-10-17T13:35:35;75648.06;;;18.16;41.08
48555;BME280;34336;48.270;16.716;2022-10-17T13:38:26;75646.13;;;18.16;41.49
48555;BME280;34336;48.270;16.716;2022-10-17T13:40:54;75644.22;;;18.16;40.29
48555;BME280;34336;48.270;16.716;2022-10-17T13:43:36;75651.91;;;18.16;40.24
48555;BME280;34336;48.270;16.716;2022-10-17T13:46:04;75655.78;;;18.16;40.13
48555;BME280;34336;48.270;16.716;2022-10-17T13:48:52;75651.91;;;18.16;40.66
48555;BME280;34336;48.270;16.716;2022-10-17T13:51:19;75657.69;;;18.16;39.99
48555;BME280;34336;48.270;16.716;2022-10-17T13:53:45;75661.56;;;18.16;39.83
48555;BME280;34336;48.270;16.716;2022-10-17T13:59:17;75688.53;;;18.16;40.09
48555;BME280;34336;48.270;16.716;2022-10-17T14:01:48;75684.66;;;18.16;40.84
48555;BME280;34336;48.270;16.716;2022-10-17T14:04:15;75688.53;;;18.16;40.17
48555;BME280;34336;48.270;16.716;2022-10-17T14:06:46;75700.09;;;18.16;40.00
48555;BME280;34336;48.270;16.716;2022-10-17T14:09:29;75684.66;;;18.16;40.35
48555;BME280;34336;48.270;16.716;2022-10-17T14:12:07;75694.31;;;18.16;40.35
48555;BME280;34336;48.270;16.716;2022-10-17T14:14:37;75698.16;;;18.16;40.50
48555;BME280;34336;48.270;16.716;2022-10-17T14:17:26;75707.78;;;18.16;40.63
48555;BME280;34336;48.270;16.716;2022-10-17T14:19:58;75707.78;;;18.16;40.18
48555;BME280;34336;48.270;16.716;2022-10-17T14:22:49;75717.41;;;18.16;40.71
48555;BME280;34336;48.270;16.716;2022-10-17T14:25:40;75719.34;;;18.16;40.73
48555;BME280;34336;48.270;16.716;2022-10-17T14:30:47;75727.06;;;18.16;40.81
48555;BME280;34336;48.270;16.716;2022-10-17T14:33:29;75732.84;;;18.16;40.86
48555;BME280;34336;48.270;16.716;2022-10-17T14:35:57;75740.53;;;18.16;41.06
48555;BME280;34336;48.270;16.716;2022-10-17T14:38:27;75740.53;;;18.16;40.91
48555;BME280;34336;48.270;16.716;2022-10-17T14:43:52;75746.31;;;18.16;41.36
48555;BME280;34336;48.270;16.716;2022-10-17T14:46:19;75754.03;;;18.16;41.18
48555;BME280;34336;48.270;16.716;2022-10-17T14:48:51;75763.66;;;18.16;41.37
48555;BME280;34336;48.270;16.716;2022-10-17T14:51:18;75765.59;;;18.16;40.90
48555;BME280;34336;48.270;16.716;2022-10-17T14:56:51;75781.00;;;18.16;40.82
48555;BME280;34336;48.270;16.716;2022-10-17T14:59:18;75773.28;;;18.16;40.75
48555;BME280;34336;48.270;16.716;2022-10-17T15:02:13;75784.84;;;18.16;40.66
48555;BME280;34336;48.270;16.716;2022-10-17T15:04:40;75796.41;;;18.16;41.01
48555;BME280;34336;48.270;16.716;2022-10-17T15:07:14;75802.19;;;18.16;41.19
48555;BME280;34336;48.270;16.716;2022-10-17T15:09:42;75804.13;;;18.16;41.18
48555;BME280;34336;48.270;16.716;2022-10-17T15:12:21;75813.75;;;18.16;41.27
48555;BME280;34336;48.270;16.716;2022-10-17T15:14:48;75827.22;;;18.16;41.82
48555;BME280;34336;48.270;16.716;2022-10-17T15:17:19;75842.66;;;18.16;41.74
48555;BME280;34336;48.270;16.716;2022-10-17T15:19:47;75858.06;;;18.16;42.45
48555;BME280;34336;48.270;16.716;2022-10-17T15:22:14;75861.91;;;18.16;41.47
48555;BME280;34336;48.270;16.716;2022-10-17T15:24:41;75873.47;;;18.16;41.59
48555;BME280;34336;48.270;16.716;2022-10-17T15:27:14;75877.31;;;18.16;40.91
48555;BME280;34336;48.270;16.716;2022-10-17T15:29:42;75881.19;;;18.16;41.08
48555;BME280;34336;48.270;16.716;2022-10-17T15:32:09;75888.88;;;18.16;41.27
48555;BME280;34336;48.270;16.716;2022-10-17T15:34:36;75898.53;;;18.16;41.48
48555;BME280;34336;48.270;16.716;2022-10-17T15:37:03;75910.06;;;18.16;41.79
48555;BME280;34336;48.270;16.716;2022-10-17T15:39:31;75940.91;;;18.16;42.81